createdAt,value
2017-07-09T00:01:48.708Z,78.10
2017-07-09T00:04:16.950Z,79.40
2017-07-09T00:06:44.425Z,79.50
2017-07-09T00:09:12.694Z,81.40
2017-07-09T00:11:40.174Z,81.40
2017-07-09T00:14:07.650Z,81.90
2017-07-09T00:16:35.155Z,82.00
2017-07-09T00:19:02.677Z,81.60
2017-07-09T00:21:30.456Z,81.60
2017-07-09T00:23:58.009Z,83.00
2017-07-09T00:26:25.480Z,83.70
2017-07-09T00:28:52.970Z,84.80
2017-07-09T00:31:21.241Z,83.10
2017-07-09T00:33:49.485Z,82.50
2017-07-09T00:36:16.958Z,82.40
2017-07-09T00:38:44.535Z,82.90
2017-07-09T00:41:12.781Z,82.50
2017-07-09T00:43:40.253Z,82.40
2017-07-09T00:46:07.754Z,81.80
2017-07-09T00:48:35.322Z,82.00
2017-07-09T00:51:02.838Z,82.90
2017-07-09T00:53:31.374Z,83.90
2017-07-09T00:55:58.850Z,83.90
2017-07-09T00:58:26.588Z,86.10
2017-07-09T01:00:54.086Z,85.40
2017-07-09T01:03:21.561Z,85.30
2017-07-09T01:05:49.805Z,85.00
2017-07-09T01:08:17.302Z,85.00
2017-07-09T01:10:45.097Z,85.90
2017-07-09T01:13:12.577Z,85.20
2017-07-09T01:15:40.069Z,84.70
2017-07-09T01:18:08.593Z,84.20
2017-07-09T01:20:36.137Z,84.20
2017-07-09T01:23:03.725Z,84.50
2017-07-09T01:25:31.197Z,84.00
2017-07-09T01:27:58.672Z,83.50
2017-07-09T01:30:26.942Z,84.10
2017-07-09T01:32:54.430Z,83.70
2017-07-09T01:35:21.906Z,82.70
2017-07-09T01:37:49.469Z,83.20
2017-07-09T01:40:16.941Z,83.30
2017-07-09T01:42:44.417Z,84.00
2017-07-09T01:45:11.908Z,83.40
2017-07-09T01:47:40.149Z,83.70
2017-07-09T01:50:07.625Z,83.70
2017-07-09T01:52:35.893Z,84.40
2017-07-09T01:55:03.369Z,84.10
2017-07-09T01:57:31.615Z,83.80
2017-07-09T01:59:59.116Z,83.80
2017-07-09T02:02:26.590Z,84.00
2017-07-09T02:04:54.066Z,83.90
2017-07-09T02:07:21.562Z,83.50
2017-07-09T02:09:49.813Z,83.70
2017-07-09T02:12:17.289Z,83.10
2017-07-09T02:14:44.791Z,83.30
2017-07-09T02:17:12.274Z,83.70
2017-07-09T02:19:39.867Z,83.80
2017-07-09T02:22:08.705Z,83.70
2017-07-09T02:24:36.181Z,83.70
2017-07-09T02:27:03.654Z,83.70
2017-07-09T02:29:31.149Z,83.90
2017-07-09T02:31:58.629Z,84.70
2017-07-09T02:34:26.101Z,84.50
2017-07-09T02:36:53.706Z,84.20
2017-07-09T02:39:21.949Z,83.50
2017-07-09T02:41:49.429Z,83.50
2017-07-09T02:44:16.925Z,83.20
2017-07-09T02:46:44.399Z,83.90
2017-07-09T02:49:12.161Z,84.40
2017-07-09T02:51:39.669Z,85.20
2017-07-09T02:54:07.950Z,86.30
2017-07-09T02:56:36.200Z,86.30
2017-07-09T02:59:03.729Z,86.30
2017-07-09T03:01:31.210Z,86.50
2017-07-09T03:03:58.689Z,86.20
2017-07-09T03:06:26.186Z,85.90
2017-07-09T03:08:53.663Z,84.70
2017-07-09T03:11:21.146Z,84.20
2017-07-09T03:13:48.637Z,85.70
2017-07-09T03:16:16.128Z,84.80
2017-07-09T03:18:43.614Z,84.00
2017-07-09T03:21:11.110Z,84.30
2017-07-09T03:23:38.589Z,85.10
2017-07-09T03:26:06.065Z,85.00
2017-07-09T03:28:33.569Z,84.40
2017-07-09T03:31:01.809Z,83.90
2017-07-09T03:33:29.281Z,84.00
2017-07-09T03:35:56.778Z,84.10
2017-07-09T03:38:24.253Z,84.00
2017-07-09T03:40:51.731Z,83.90
2017-07-09T03:43:19.232Z,83.70
2017-07-09T03:45:47.476Z,84.00
2017-07-09T03:48:14.954Z,84.00
2017-07-09T03:50:43.217Z,84.20
2017-07-09T03:53:10.694Z,84.20
2017-07-09T03:55:38.981Z,85.60
2017-07-09T03:58:06.481Z,85.60
2017-07-09T04:00:33.958Z,85.20
2017-07-09T04:03:01.438Z,84.80
2017-07-09T04:05:29.739Z,85.10
2017-07-09T04:07:57.252Z,85.10
2017-07-09T04:10:24.730Z,85.60
2017-07-09T04:12:52.989Z,84.50
2017-07-09T04:15:20.828Z,84.40
2017-07-09T04:17:48.338Z,85.20
2017-07-09T04:20:16.597Z,84.20
2017-07-09T04:22:44.069Z,84.20
2017-07-09T04:25:12.311Z,84.50
2017-07-09T04:27:39.808Z,84.60
2017-07-09T04:30:07.288Z,85.00
2017-07-09T04:32:34.766Z,85.60
2017-07-09T04:35:02.258Z,86.40
2017-07-09T04:37:30.505Z,86.70
2017-07-09T04:39:57.981Z,86.20
2017-07-09T04:42:25.866Z,86.20
2017-07-09T04:44:54.142Z,84.70
2017-07-09T04:47:22.382Z,84.10
2017-07-09T04:49:49.874Z,84.00
2017-07-09T04:52:18.125Z,81.80
2017-07-09T04:54:45.609Z,81.80
2017-07-09T04:57:13.870Z,82.70
2017-07-09T04:59:41.345Z,82.70
2017-07-09T05:02:09.586Z,81.40
2017-07-09T05:04:37.078Z,81.40
2017-07-09T05:07:04.565Z,81.20
2017-07-09T05:09:32.037Z,82.00
2017-07-09T05:11:59.544Z,82.60
2017-07-09T05:14:27.786Z,80.90
2017-07-09T05:16:55.258Z,80.80
2017-07-09T05:19:22.762Z,81.60
2017-07-09T05:21:50.242Z,82.50
2017-07-09T05:24:17.717Z,82.40
2017-07-09T05:26:45.210Z,82.00
2017-07-09T05:29:13.446Z,81.30
2017-07-09T05:31:40.921Z,81.20
2017-07-09T05:34:08.416Z,81.70
2017-07-09T05:36:35.885Z,82.70
2017-07-09T05:39:03.353Z,83.30
2017-07-09T05:41:30.845Z,81.20
2017-07-09T05:43:58.318Z,81.80
2017-07-09T05:46:26.557Z,82.00
2017-07-09T05:48:54.050Z,81.80
2017-07-09T05:51:22.287Z,80.00
2017-07-09T05:53:49.756Z,80.00
2017-07-09T05:56:17.334Z,79.50
2017-07-09T05:58:45.569Z,80.50
2017-07-09T06:01:13.046Z,79.80
2017-07-09T06:03:40.542Z,79.00
2017-07-09T06:06:08.013Z,79.60
2017-07-09T06:08:35.489Z,78.30
2017-07-09T06:11:02.985Z,78.80
2017-07-09T06:13:30.452Z,77.10
2017-07-09T06:15:58.689Z,76.30
2017-07-09T06:18:26.176Z,76.30
2017-07-09T06:20:54.545Z,75.80
2017-07-09T06:23:22.017Z,75.80
2017-07-09T06:25:50.276Z,73.20
2017-07-09T06:28:17.746Z,73.20
2017-07-09T06:30:46.038Z,75.90
2017-07-09T06:33:14.297Z,73.80
2017-07-09T06:35:41.765Z,73.80
2017-07-09T06:38:10.036Z,74.00
2017-07-09T06:40:38.309Z,73.70
2017-07-09T06:43:05.802Z,73.60
2017-07-09T06:45:33.576Z,75.70
2017-07-09T06:48:01.081Z,74.70
2017-07-09T06:50:28.549Z,74.40
2017-07-09T06:52:56.786Z,72.70
2017-07-09T06:55:24.278Z,72.70
2017-07-09T06:57:52.518Z,74.50
2017-07-09T07:00:19.989Z,74.50
2017-07-09T07:02:47.483Z,73.80
2017-07-09T07:05:14.958Z,75.00
2017-07-09T07:07:42.445Z,73.30
2017-07-09T07:10:10.153Z,74.50
2017-07-09T07:12:38.393Z,73.70
2017-07-09T07:15:05.865Z,73.50
2017-07-09T07:17:33.352Z,70.80
2017-07-09T07:20:00.825Z,70.90
2017-07-09T07:22:28.599Z,68.20
2017-07-09T07:24:56.090Z,68.60
2017-07-09T07:27:23.563Z,69.40
2017-07-09T07:29:51.846Z,68.30
2017-07-09T07:32:20.106Z,68.80
2017-07-09T07:34:47.585Z,68.70
2017-07-09T07:37:15.826Z,68.70
2017-07-09T07:39:43.317Z,68.80
2017-07-09T07:42:11.553Z,67.80
2017-07-09T07:44:39.022Z,67.80
2017-07-09T07:47:06.745Z,64.60
2017-07-09T07:49:34.218Z,62.30
2017-07-09T07:52:01.692Z,59.90
2017-07-09T07:54:29.185Z,61.50
2017-07-09T07:56:57.424Z,60.00
2017-07-09T07:59:24.894Z,60.10
2017-07-09T08:01:52.393Z,62.70
2017-07-09T08:04:19.865Z,60.40
2017-07-09T08:06:47.341Z,59.80
2017-07-09T08:09:14.841Z,59.10
2017-07-09T08:11:43.106Z,56.90
2017-07-09T08:14:11.347Z,55.40
2017-07-09T08:16:39.780Z,54.70
2017-07-09T08:19:07.285Z,54.70
2017-07-09T08:21:34.769Z,59.40
2017-07-09T08:24:02.265Z,55.40
2017-07-09T08:26:29.807Z,57.50
2017-07-09T08:28:57.286Z,58.70
2017-07-09T08:31:25.113Z,58.60
2017-07-09T08:33:52.619Z,58.80
2017-07-09T08:36:20.133Z,57.70
2017-07-09T08:38:48.390Z,58.40
2017-07-09T08:41:15.887Z,58.50
2017-07-09T08:43:43.362Z,57.70
2017-07-09T08:46:10.853Z,58.70
2017-07-09T08:48:38.326Z,58.20
2017-07-09T08:51:05.809Z,58.90
2017-07-09T08:53:33.301Z,57.20
2017-07-09T08:56:00.787Z,57.80
2017-07-09T08:58:28.282Z,56.00
2017-07-09T09:00:55.832Z,55.20
2017-07-09T09:03:23.309Z,56.00
2017-07-09T09:05:50.795Z,56.10
2017-07-09T09:08:18.293Z,57.30
2017-07-09T09:10:46.530Z,56.20
2017-07-09T09:13:14.001Z,55.40
2017-07-09T09:15:41.497Z,54.80
2017-07-09T09:18:08.974Z,54.70
2017-07-09T09:20:36.453Z,55.20
2017-07-09T09:23:03.945Z,56.00
2017-07-09T09:25:31.420Z,56.40
2017-07-09T09:27:59.659Z,55.70
2017-07-09T09:30:27.157Z,55.70
2017-07-09T09:32:55.437Z,55.00
2017-07-09T09:35:23.135Z,55.00
2017-07-09T09:37:50.633Z,52.40
2017-07-09T09:40:18.109Z,52.60
2017-07-09T09:42:46.349Z,52.90
2017-07-09T09:45:13.837Z,52.90
2017-07-09T09:47:42.136Z,54.60
2017-07-09T09:50:09.570Z,54.50
2017-07-09T09:52:37.083Z,53.20
2017-07-09T09:55:04.557Z,54.10
2017-07-09T09:57:32.029Z,55.40
2017-07-09T10:00:00.292Z,55.50
2017-07-09T10:02:27.775Z,55.40
2017-07-09T10:04:56.009Z,54.80
2017-07-09T10:07:23.518Z,54.70
2017-07-09T10:09:50.993Z,55.70
2017-07-09T10:12:18.470Z,57.00
2017-07-09T10:14:45.962Z,57.70
2017-07-09T10:17:14.202Z,55.40
2017-07-09T10:19:41.671Z,55.40
2017-07-09T10:22:09.160Z,57.00
2017-07-09T10:24:37.440Z,55.60
2017-07-09T10:27:05.674Z,55.70
2017-07-09T10:29:33.166Z,55.60
2017-07-09T10:32:01.401Z,55.00
2017-07-09T10:34:28.874Z,54.30
2017-07-09T10:36:56.365Z,55.30
2017-07-09T10:39:24.605Z,55.40
2017-07-09T10:41:52.078Z,55.40
2017-07-09T10:44:19.568Z,54.40
2017-07-09T10:46:47.037Z,54.90
2017-07-09T10:49:14.509Z,56.50
2017-07-09T10:51:42.021Z,52.00
2017-07-09T10:54:10.261Z,49.00
2017-07-09T10:56:37.734Z,49.00
2017-07-09T10:59:05.228Z,49.90
2017-07-09T11:01:32.757Z,48.50
2017-07-09T11:04:01.001Z,46.20
2017-07-09T11:06:28.746Z,46.20
2017-07-09T11:08:56.225Z,44.00
2017-07-09T11:11:23.701Z,45.40
2017-07-09T11:13:51.393Z,45.70
2017-07-09T11:16:18.866Z,44.90
2017-07-09T11:18:46.349Z,44.10
2017-07-09T11:21:13.844Z,45.30
2017-07-09T11:23:42.082Z,44.80
2017-07-09T11:26:09.556Z,44.70
2017-07-09T11:28:37.061Z,44.00
2017-07-09T11:31:04.541Z,45.50
2017-07-09T11:33:32.301Z,45.40
2017-07-09T11:36:00.553Z,42.00
2017-07-09T11:38:28.029Z,38.80
2017-07-09T11:40:55.549Z,36.40
2017-07-09T11:43:23.041Z,37.70
2017-07-09T11:45:50.514Z,39.60
2017-07-09T11:48:17.986Z,38.90
2017-07-09T11:50:45.479Z,38.80
2017-07-09T11:53:13.721Z,36.70
2017-07-09T11:55:41.199Z,36.60
2017-07-09T11:58:08.701Z,37.90
2017-07-09T12:00:36.180Z,37.00
2017-07-09T12:03:03.649Z,38.00
2017-07-09T12:05:31.146Z,38.50
2017-07-09T12:07:59.393Z,38.00
2017-07-09T12:10:26.866Z,37.90
2017-07-09T12:12:54.359Z,34.40
2017-07-09T12:15:21.838Z,37.70
2017-07-09T12:17:49.316Z,39.20
2017-07-09T12:20:16.822Z,37.00
2017-07-09T12:22:44.360Z,38.40
2017-07-09T12:25:12.603Z,36.20
2017-07-09T12:27:40.338Z,36.20
2017-07-09T12:30:07.814Z,36.10
2017-07-09T12:32:35.293Z,37.30
2017-07-09T12:35:02.785Z,39.40
2017-07-09T12:37:30.260Z,40.00
2017-07-09T12:39:58.032Z,34.90
2017-07-09T12:42:25.530Z,37.50
2017-07-09T12:44:53.102Z,35.30
2017-07-09T12:47:21.349Z,34.90
2017-07-09T12:49:48.841Z,34.80
2017-07-09T12:52:17.082Z,33.40
2017-07-09T12:54:44.566Z,33.30
2017-07-09T12:57:12.830Z,36.70
2017-07-09T12:59:40.301Z,36.60
2017-07-09T13:02:08.537Z,37.30
2017-07-09T13:04:36.030Z,37.30
2017-07-09T13:07:03.576Z,37.70
2017-07-09T13:09:31.817Z,38.40
2017-07-09T13:11:59.366Z,38.40
2017-07-09T13:14:26.844Z,38.20
2017-07-09T13:16:54.321Z,39.60
2017-07-09T13:19:22.602Z,40.40
2017-07-09T13:21:50.845Z,41.50
2017-07-09T13:24:18.318Z,41.50
2017-07-09T13:26:45.818Z,42.20
2017-07-09T13:29:13.306Z,41.70
2017-07-09T13:31:40.781Z,41.10
2017-07-09T13:34:08.303Z,40.20
2017-07-09T13:36:35.813Z,41.00
2017-07-09T13:39:03.285Z,41.70
2017-07-09T13:41:31.824Z,42.10
2017-07-09T13:43:59.573Z,41.70
2017-07-09T13:46:27.045Z,40.40
2017-07-09T13:48:54.537Z,43.60
2017-07-09T13:51:22.824Z,46.20
2017-07-09T13:53:51.123Z,45.00
2017-07-09T13:56:18.637Z,45.00
2017-07-09T13:58:46.109Z,44.70
2017-07-09T14:01:14.358Z,46.50
2017-07-09T14:03:41.855Z,46.40
2017-07-09T14:06:10.094Z,47.20
2017-07-09T14:08:37.582Z,47.10
2017-07-09T14:11:05.074Z,48.40
2017-07-09T14:13:32.547Z,50.50
2017-07-09T14:16:00.021Z,52.90
2017-07-09T14:18:27.509Z,51.70
2017-07-09T14:20:55.749Z,53.90
2017-07-09T14:23:23.220Z,53.80
2017-07-09T14:25:50.714Z,54.20
2017-07-09T14:28:18.193Z,53.50
2017-07-09T14:30:45.669Z,54.60
2017-07-09T14:33:13.165Z,55.20
2017-07-09T14:35:41.401Z,55.90
2017-07-09T14:38:08.874Z,55.90
2017-07-09T14:40:36.374Z,56.50
2017-07-09T14:43:03.846Z,56.40
2017-07-09T14:45:31.328Z,57.40
2017-07-09T14:47:58.821Z,58.10
2017-07-09T14:50:27.080Z,58.90
2017-07-09T14:52:54.550Z,58.90
2017-07-09T14:55:22.809Z,59.40
2017-07-09T14:57:50.280Z,59.40
2017-07-09T15:00:17.752Z,60.40
2017-07-09T15:02:46.012Z,62.10
2017-07-09T15:05:13.487Z,62.10
2017-07-09T15:07:41.752Z,62.60
2017-07-09T15:10:10.020Z,63.80
2017-07-09T15:12:38.318Z,64.40
2017-07-09T15:15:06.564Z,65.70
2017-07-09T15:17:34.058Z,65.70
2017-07-09T15:20:01.537Z,66.00
2017-07-09T15:22:29.010Z,63.60
2017-07-09T15:24:56.500Z,64.30
2017-07-09T15:27:23.996Z,63.20
2017-07-09T15:29:51.503Z,63.00
2017-07-09T15:32:19.091Z,62.60
2017-07-09T15:34:46.644Z,63.60
2017-07-09T15:37:15.046Z,64.90
2017-07-09T15:39:42.562Z,64.90
2017-07-09T15:42:10.043Z,65.40
2017-07-09T15:44:37.643Z,63.20
2017-07-09T15:47:05.222Z,64.30
2017-07-09T15:49:32.701Z,65.50
2017-07-09T15:52:00.959Z,66.70
2017-07-09T15:54:28.465Z,65.90
2017-07-09T15:56:55.997Z,65.70
2017-07-09T15:59:24.242Z,64.70
2017-07-09T16:01:51.740Z,64.70
2017-07-09T16:04:19.978Z,65.30
2017-07-09T16:06:47.495Z,65.30
2017-07-09T16:09:14.995Z,64.10
2017-07-09T16:11:42.469Z,64.60
2017-07-09T16:14:10.714Z,61.90
2017-07-09T16:16:38.210Z,62.30
2017-07-09T16:19:06.499Z,61.80
2017-07-09T16:21:33.971Z,61.80
2017-07-09T16:24:01.466Z,60.80
2017-07-09T16:26:28.937Z,60.00
2017-07-09T16:28:56.409Z,60.00
2017-07-09T16:31:24.690Z,59.50
2017-07-09T16:33:52.934Z,59.70
2017-07-09T16:36:20.406Z,59.60
2017-07-09T16:38:47.916Z,59.70
2017-07-09T16:41:15.389Z,60.60
2017-07-09T16:43:42.873Z,60.70
2017-07-09T16:46:10.450Z,58.70
2017-07-09T16:48:38.717Z,62.70
2017-07-09T16:51:06.958Z,63.90
2017-07-09T16:53:34.497Z,63.90
2017-07-09T16:56:01.995Z,63.10
2017-07-09T16:58:30.433Z,63.30
2017-07-09T17:00:58.966Z,62.10
2017-07-09T17:03:26.532Z,62.10
2017-07-09T17:05:54.769Z,61.20
2017-07-09T17:08:22.412Z,61.20
2017-07-09T17:10:49.980Z,61.90
2017-07-09T17:13:17.468Z,63.20
2017-07-09T17:15:44.959Z,63.90
2017-07-09T17:18:12.435Z,64.60
2017-07-09T17:20:39.910Z,65.10
2017-07-09T17:23:07.416Z,65.70
2017-07-09T17:25:35.669Z,66.90
2017-07-09T17:28:03.147Z,66.90
2017-07-09T17:30:32.518Z,66.00
2017-07-09T17:33:00.064Z,65.10
2017-07-09T17:35:27.536Z,67.00
2017-07-09T17:37:55.877Z,67.50
2017-07-09T17:40:23.353Z,69.20
2017-07-09T17:42:50.861Z,69.10
2017-07-09T17:45:18.889Z,67.60
2017-07-09T17:47:46.545Z,67.80
2017-07-09T17:50:14.022Z,67.80
2017-07-09T17:52:41.533Z,66.90
2017-07-09T17:55:09.006Z,65.40
2017-07-09T17:57:36.481Z,65.70
2017-07-09T18:00:03.972Z,65.80
2017-07-09T18:02:32.215Z,66.10
2017-07-09T18:04:59.707Z,66.00
2017-07-09T18:07:28.018Z,64.70
2017-07-09T18:09:55.493Z,64.70
2017-07-09T18:12:22.971Z,64.80
2017-07-09T18:14:50.752Z,63.60
2017-07-09T18:17:18.242Z,62.20
2017-07-09T18:19:45.723Z,63.60
2017-07-09T18:22:13.233Z,63.80
2017-07-09T18:24:41.473Z,63.50
2017-07-09T18:27:09.001Z,63.50
2017-07-09T18:29:36.493Z,63.50
2017-07-09T18:32:04.127Z,63.80
2017-07-09T18:34:31.688Z,64.80
2017-07-09T18:36:59.252Z,65.80
2017-07-09T18:39:26.728Z,65.50
2017-07-09T18:41:54.197Z,66.40
2017-07-09T18:44:21.773Z,67.40
2017-07-09T18:46:50.017Z,67.90
2017-07-09T18:49:17.493Z,67.90
2017-07-09T18:51:45.060Z,68.20
2017-07-09T18:54:13.297Z,67.70
2017-07-09T18:56:40.773Z,67.70
2017-07-09T18:59:08.269Z,67.80
2017-07-09T19:01:35.744Z,67.90
2017-07-09T19:04:03.260Z,68.50
2017-07-09T19:06:31.521Z,69.40
2017-07-09T19:08:58.993Z,69.10
2017-07-09T19:11:27.270Z,70.50
2017-07-09T19:13:55.529Z,70.00
2017-07-09T19:16:23.106Z,69.90
2017-07-09T19:18:51.353Z,70.50
2017-07-09T19:21:18.858Z,71.10
2017-07-09T19:23:46.330Z,71.20
2017-07-09T19:26:13.825Z,71.30
2017-07-09T19:28:41.318Z,71.70
2017-07-09T19:31:09.556Z,71.10
2017-07-09T19:33:37.025Z,71.10
2017-07-09T19:36:04.525Z,71.60
2017-07-09T19:38:32.146Z,72.00
2017-07-09T19:40:59.698Z,71.10
2017-07-09T19:43:27.591Z,71.50
2017-07-09T19:45:55.887Z,70.90
2017-07-09T19:48:23.370Z,70.70
2017-07-09T19:50:50.865Z,71.00
2017-07-09T19:53:18.340Z,70.60
2017-07-09T19:55:46.573Z,70.90
2017-07-09T19:58:14.317Z,70.90
2017-07-09T20:00:41.790Z,71.00
2017-07-09T20:03:09.326Z,71.00
2017-07-09T20:05:36.818Z,70.90
2017-07-09T20:08:04.289Z,70.80
2017-07-09T20:10:31.757Z,70.80
2017-07-09T20:13:00.017Z,71.30
2017-07-09T20:15:27.589Z,71.30
2017-07-09T20:17:56.125Z,71.40
2017-07-09T20:20:23.619Z,70.80
2017-07-09T20:22:51.861Z,67.70
2017-07-09T20:25:19.360Z,68.20
2017-07-09T20:27:47.621Z,67.70
2017-07-09T20:30:15.100Z,67.60
2017-07-09T20:32:43.337Z,67.40
2017-07-09T20:35:10.828Z,67.20
2017-07-09T20:37:39.065Z,69.70
2017-07-09T20:40:06.538Z,69.60
2017-07-09T20:42:34.114Z,68.90
2017-07-09T20:45:02.356Z,70.40
2017-07-09T20:47:30.098Z,70.40
2017-07-09T20:49:57.598Z,68.20
2017-07-09T20:52:25.069Z,71.10
2017-07-09T20:54:53.313Z,72.10
2017-07-09T20:57:20.806Z,72.10
2017-07-09T20:59:49.049Z,70.00
2017-07-09T21:02:16.518Z,69.90
2017-07-09T21:04:44.017Z,70.90
2017-07-09T21:07:11.549Z,70.70
2017-07-09T21:09:39.784Z,73.80
2017-07-09T21:12:07.282Z,73.80
2017-07-09T21:14:35.527Z,76.40
2017-07-09T21:17:02.998Z,76.40
2017-07-09T21:19:30.718Z,78.90
2017-07-09T21:21:58.202Z,78.70
2017-07-09T21:24:25.675Z,81.50
2017-07-09T21:26:53.174Z,82.20
2017-07-09T21:29:20.648Z,85.10
2017-07-09T21:31:48.119Z,85.00
2017-07-09T21:34:15.613Z,86.80
2017-07-09T21:36:43.860Z,88.30
2017-07-09T21:39:12.125Z,88.80
2017-07-09T21:41:39.621Z,88.60
2017-07-09T21:44:07.858Z,90.70
2017-07-09T21:46:35.338Z,90.40
2017-07-09T21:49:02.829Z,91.00
2017-07-09T21:51:30.301Z,92.40
2017-07-09T21:53:57.769Z,93.00
2017-07-09T21:56:25.273Z,93.60
2017-07-09T21:58:52.847Z,94.40
2017-07-09T22:01:21.089Z,94.90
2017-07-09T22:03:48.585Z,94.90
2017-07-09T22:06:16.825Z,95.00
2017-07-09T22:08:44.305Z,94.90
2017-07-09T22:11:12.566Z,95.30
2017-07-09T22:13:40.046Z,95.30
2017-07-09T22:16:08.306Z,95.50
2017-07-09T22:18:36.570Z,95.40
2017-07-09T22:21:04.045Z,95.40
2017-07-09T22:23:32.573Z,96.10
2017-07-09T22:26:00.065Z,96.10
2017-07-09T22:28:27.537Z,96.10
2017-07-09T22:30:55.777Z,95.90
2017-07-09T22:33:23.270Z,95.90
2017-07-09T22:35:51.513Z,95.90
2017-07-09T22:38:19.197Z,95.60
2017-07-09T22:40:46.689Z,95.60
2017-07-09T22:43:14.165Z,95.60
2017-07-09T22:45:41.641Z,95.70
2017-07-09T22:48:09.145Z,95.90
2017-07-09T22:50:37.384Z,95.90
2017-07-09T22:53:04.857Z,95.80
2017-07-09T22:55:32.425Z,95.70
2017-07-09T22:58:00.661Z,95.70
2017-07-09T23:00:28.128Z,95.70
2017-07-09T23:02:55.624Z,95.70
2017-07-09T23:05:23.865Z,95.60
2017-07-09T23:07:51.601Z,95.50
2017-07-09T23:10:19.093Z,95.50
2017-07-09T23:12:46.562Z,95.40
2017-07-09T23:15:14.816Z,95.60
2017-07-09T23:17:42.710Z,95.60
2017-07-09T23:20:10.949Z,96.10
2017-07-09T23:22:38.420Z,96.10
2017-07-09T23:25:05.919Z,96.30
2017-07-09T23:27:33.401Z,96.20
2017-07-09T23:30:00.871Z,96.30
2017-07-09T23:32:28.366Z,96.30
2017-07-09T23:34:56.646Z,96.50
2017-07-09T23:37:24.886Z,96.20
2017-07-09T23:39:52.383Z,96.20
2017-07-09T23:42:20.621Z,96.30
2017-07-09T23:44:48.150Z,96.30
2017-07-09T23:47:15.671Z,96.30
2017-07-09T23:49:43.245Z,96.30
2017-07-09T23:52:10.721Z,96.30
2017-07-09T23:54:38.213Z,96.20
2017-07-09T23:57:05.902Z,96.10
2017-07-09T23:59:34.146Z,96.10
